Terminal Aerodrome Forecast
Issued by NWS

Home | Current Version | Previous Version | Graphics & Text | Print | Product List | Glossary On
Versions: 1 2 3 4 5 6 7 8 9 10 11 12 13 14 15 16 17 18 19 20 21 22 23 24 25 26 27 28 29 30 31 32 33 34 35 36 37 38
000
FTUS43 KGRB 021506 AAB
TAFRHI
TAF AMD
KRHI 021506Z 0215/0312 25005KT P6SM SCT035 BKN070
      TEMPO 0215/0217 27012G25KT 3SM -TSRA OVC035CB
     FM021900 28008G15KT P6SM SCT035 BKN070
     FM030100 30005KT P6SM SCT050=

USA.gov is the U.S. government's official web portal to all federal, state and local government web resources and services.